Time;durP1;ratioP1;P1;durP2;ratioP2;P2;SDS_P1;SDS_P2;PMS_P1;PMS_P2;Temp;Humidity;BMP_temperature;BMP_pressure;BME280_temperature;BME280_humidity;BME280_pressure;Samples;Min_cycle;Max_cycle;Signal;HPM_P1;HPM_P2
2022/07/09 00:00:51;;;;;;;2.90;2.60;;;;;;;22.46;100.00;101281.94;2065092;28;20221;-65
2022/07/09 00:01:52;;;;;;;5.87;2.70;;;;;;;22.47;100.00;101289.16;2063798;28;20707;-64
2022/07/09 00:02:52;;;;;;;2.77;2.30;;;;;;;21.96;100.00;101214.94;2069341;28;20734;-65
2022/07/09 00:03:54;;;;;;;3.70;2.40;;;;;;;22.44;100.00;101286.53;2068936;28;20691;-65
2022/07/09 00:04:55;;;;;;;4.40;2.50;;;;;;;22.07;100.00;101249.69;2067713;28;20198;-64
2022/07/09 00:05:55;;;;;;;3.10;2.40;;;;;;;22.17;100.00;101273.69;2071869;28;20182;-64
2022/07/09 00:06:56;;;;;;;3.80;2.47;;;;;;;22.22;100.00;101292.69;2073016;28;20209;-64
2022/07/09 00:07:56;;;;;;;4.20;2.60;;;;;;;22.20;100.00;101291.66;2072953;28;20177;-64
2022/07/09 00:08:58;;;;;;;5.77;3.30;;;;;;;21.49;100.00;101192.81;2065653;28;20707;-64
2022/07/09 00:09:58;;;;;;;3.63;2.60;;;;;;;22.18;100.00;101289.34;2064723;28;20681;-64
2022/07/09 00:10:59;;;;;;;2.83;2.53;;;;;;;21.95;100.00;101242.38;2069969;28;20456;-64
2022/07/09 00:11:59;;;;;;;3.83;2.77;;;;;;;22.23;100.00;101291.44;2072830;28;20189;-64
2022/07/09 00:13:00;;;;;;;4.40;2.80;;;;;;;22.24;100.00;101286.56;2069228;28;20213;-64
2022/07/09 00:14:00;;;;;;;5.30;2.67;;;;;;;22.22;100.00;101292.69;2064441;28;20170;-64
2022/07/09 00:15:01;;;;;;;4.47;2.60;;;;;;;22.24;100.00;101287.34;2064897;28;20186;-64
2022/07/09 00:16:02;;;;;;;6.63;2.73;;;;;;;22.24;100.00;101292.22;2064091;28;20193;-64
2022/07/09 00:17:02;;;;;;;2.87;2.43;;;;;;;21.65;100.00;101198.63;2072849;28;20194;-64
2022/07/09 00:18:03;;;;;;;2.60;2.40;;;;;;;22.30;100.00;101293.81;2072888;28;20193;-65
2022/07/09 00:19:04;;;;;;;3.63;2.50;;;;;;;22.29;100.00;101283.81;2066378;28;20190;-64
2022/07/09 00:20:05;;;;;;;2.70;2.50;;;;;;;22.30;100.00;101285.34;2067620;28;20185;-65
2022/07/09 00:21:06;;;;;;;3.37;2.63;;;;;;;22.38;100.00;101300.59;2068943;28;20783;-65
2022/07/09 00:22:06;;;;;;;7.00;3.00;;;;;;;22.40;100.00;101305.72;2067210;28;20661;-65
2022/07/09 00:23:07;;;;;;;3.50;2.50;;;;;;;22.38;100.00;101302.63;2072168;28;20212;-65
2022/07/09 00:24:07;;;;;;;2.93;2.63;;;;;;;22.38;100.00;101308.28;2072542;28;20201;-65
2022/07/09 00:25:08;;;;;;;5.53;2.90;;;;;;;22.39;100.00;101318.31;2072965;28;20655;-65
2022/07/09 00:26:08;;;;;;;2.77;2.23;;;;;;;22.23;100.00;101288.63;2064543;28;20797;-65
2022/07/09 00:27:09;;;;;;;4.07;2.70;;;;;;;22.47;100.00;101319.47;2064715;28;20190;-65
2022/07/09 00:28:09;;;;;;;2.80;2.50;;;;;;;22.48;100.00;101324.63;2069623;28;20204;-65
2022/07/09 00:29:10;;;;;;;4.13;2.70;;;;;;;22.52;100.00;101327.22;2069017;28;20194;-65
2022/07/09 00:30:10;;;;;;;2.97;2.50;;;;;;;22.50;100.00;101326.91;2064723;28;20183;-64
2022/07/09 00:31:11;;;;;;;3.93;2.77;;;;;;;22.51;100.00;101328.50;2065936;28;20557;-65
2022/07/09 00:32:11;;;;;;;3.00;2.53;;;;;;;22.52;100.00;101338.50;2067989;28;20593;-65
2022/07/09 00:33:12;;;;;;;6.00;3.00;;;;;;;22.54;100.00;101333.13;2064383;28;20182;-64
2022/07/09 00:34:12;;;;;;;6.60;3.33;;;;;;;22.29;100.00;101292.28;2071638;28;20197;-65
2022/07/09 00:35:13;;;;;;;7.90;3.30;;;;;;;22.49;100.00;101323.34;2072728;28;20240;-65
2022/07/09 00:36:14;;;;;;;5.40;2.70;;;;;;;21.58;100.00;101181.34;2066776;28;20220;-65
2022/07/09 00:37:14;;;;;;;6.17;3.20;;;;;;;22.38;100.00;101303.41;2064493;28;20193;-65
2022/07/09 00:38:14;;;;;;;4.07;3.07;;;;;;;21.54;100.00;101161.06;2064737;28;20205;-65
2022/07/09 00:39:15;;;;;;;7.27;3.13;;;;;;;22.57;100.00;101318.03;2066157;28;20191;-65
2022/07/09 00:40:15;;;;;;;6.77;2.90;;;;;;;22.62;100.00;101318.06;2072356;28;20184;-65
2022/07/09 00:41:16;;;;;;;6.63;3.30;;;;;;;22.64;100.00;101318.34;2072625;28;20169;-65
2022/07/09 00:42:17;;;;;;;4.50;3.13;;;;;;;22.59;100.00;101313.44;2072926;28;20232;-65
2022/07/09 00:43:22;;;;;;;4.90;2.77;;;;;;;22.61;100.00;101310.88;2065644;28;20192;-65
2022/07/09 00:44:22;;;;;;;4.33;2.53;;;;;;;22.60;100.00;101305.72;2064646;28;20297;-65
2022/07/09 00:45:23;;;;;;;4.60;2.90;;;;;;;22.62;100.00;101303.19;2068837;28;20204;-65
2022/07/09 00:46:23;;;;;;;4.60;2.70;;;;;;;22.63;100.00;101302.66;2068761;28;20198;-65
2022/07/09 00:47:24;;;;;;;3.03;2.73;;;;;;;22.66;100.00;101306.53;2064468;28;20219;-65
2022/07/09 00:48:25;;;;;;;2.93;2.63;;;;;;;22.65;100.00;101293.69;2064675;28;20183;-65
2022/07/09 00:49:28;;;;;;;4.57;2.57;;;;;;;21.97;100.00;101179.78;2064609;28;20174;-64
2022/07/09 00:50:29;;;;;;;6.27;2.77;;;;;;;21.78;100.00;101161.63;2072861;28;20181;-65
2022/07/09 00:51:30;;;;;;;3.90;2.70;;;;;;;22.72;100.00;101313.03;2072585;28;20451;-65
2022/07/09 00:52:34;;;;;;;3.30;2.37;;;;;;;22.19;100.00;101230.81;2065733;28;20194;-65
2022/07/09 00:53:35;;;;;;;5.80;2.90;;;;;;;22.71;100.00;101288.84;2070448;28;20562;-65
2022/07/09 00:54:37;;;;;;;3.03;2.50;;;;;;;22.73;100.00;101294.81;2072604;28;20204;-65
2022/07/09 00:55:38;;;;;;;3.03;2.40;;;;;;;22.75;100.00;101293.03;2067869;28;20185;-65
2022/07/09 00:56:39;;;;;;;3.30;2.37;;;;;;;22.73;100.00;101291.97;2064494;28;20237;-65
2022/07/09 00:57:40;;;;;;;3.30;2.80;;;;;;;22.63;100.00;101297.00;2064581;28;20174;-65
2022/07/09 00:58:44;;;;;;;4.70;2.60;;;;;;;22.77;100.00;101298.19;2065134;28;20178;-65
2022/07/09 00:59:44;;;;;;;4.60;2.80;;;;;;;22.06;100.00;101186.03;2072780;28;20177;-65
2022/07/09 01:00:45;;;;;;;3.70;2.67;;;;;;;22.81;100.00;101296.66;2064578;28;20178;-65
2022/07/09 01:01:46;;;;;;;3.63;2.70;;;;;;;22.67;100.00;101277.03;2064528;28;20292;-65
2022/07/09 01:02:49;;;;;;;3.87;2.50;;;;;;;22.73;100.00;101289.91;2063947;28;20186;-66
2022/07/09 01:03:49;;;;;;;5.13;2.70;;;;;;;22.76;100.00;101288.13;2064407;28;20268;-65
2022/07/09 01:04:50;;;;;;;3.23;2.60;;;;;;;22.77;100.00;101295.34;2064311;28;20181;-66
2022/07/09 01:05:51;;;;;;;5.67;2.50;;;;;;;22.74;100.00;101297.13;2063622;28;20656;-65
2022/07/09 01:06:51;;;;;;;4.27;2.70;;;;;;;22.72;100.00;101294.00;2066193;28;20166;-65
2022/07/09 01:07:53;;;;;;;4.83;2.80;;;;;;;22.10;100.00;101199.94;2071777;28;20544;-65
2022/07/09 01:08:53;;;;;;;3.10;2.50;;;;;;;22.46;100.00;101258.59;2064601;28;20182;-65
2022/07/09 01:09:54;;;;;;;4.73;2.87;;;;;;;22.71;100.00;101286.81;2072088;28;20182;-65
2022/07/09 01:10:55;;;;;;;3.60;2.87;;;;;;;22.65;100.00;101294.47;2072478;28;20197;-65
2022/07/09 01:11:56;;;;;;;2.80;2.50;;;;;;;22.56;100.00;101289.00;2067082;28;20186;-65
2022/07/09 01:12:57;;;;;;;7.17;3.20;;;;;;;21.89;100.00;101198.41;2068496;28;20185;-65
2022/07/09 01:13:57;;;;;;;4.60;2.57;;;;;;;22.58;100.00;101305.44;2072434;28;20515;-65
2022/07/09 01:14:58;;;;;;;4.97;2.83;;;;;;;22.51;100.00;101280.47;2070302;28;20173;-64
2022/07/09 01:15:58;;;;;;;6.17;2.60;;;;;;;22.54;100.00;101279.47;2063605;28;20178;-65
2022/07/09 01:17:00;;;;;;;4.00;2.60;;;;;;;22.59;100.00;101287.22;2064694;28;20182;-65
2022/07/09 01:18:01;;;;;;;3.30;2.60;;;;;;;22.60;100.00;101277.47;2064676;28;20179;-65
2022/07/09 01:19:01;;;;;;;5.73;2.97;;;;;;;22.54;100.00;101282.28;2064684;28;20996;-64
2022/07/09 01:20:02;;;;;;;4.73;2.70;;;;;;;22.51;100.00;101275.59;2066032;28;20209;-64
2022/07/09 01:21:03;;;;;;;4.20;2.60;;;;;;;22.35;100.00;101267.69;2063666;28;20185;-65
2022/07/09 01:22:04;;;;;;;3.17;2.87;;;;;;;22.28;100.00;101262.50;2068276;28;20281;-65
2022/07/09 01:23:04;;;;;;;4.80;3.00;;;;;;;22.30;100.00;101274.06;2069299;28;20180;-64
2022/07/09 01:24:05;;;;;;;5.30;3.10;;;;;;;22.12;100.00;101248.19;2065731;28;20202;-65
2022/07/09 01:25:09;;;;;;;5.10;3.00;;;;;;;22.29;100.00;101268.91;2072222;28;20177;-64
2022/07/09 01:26:09;;;;;;;5.73;2.73;;;;;;;21.42;100.00;101148.09;2071945;28;20730;-64
2022/07/09 01:27:10;;;;;;;4.50;3.33;;;;;;;21.60;100.00;101168.31;2072514;28;20801;-65
2022/07/09 01:28:10;;;;;;;4.97;2.90;;;;;;;22.26;100.00;101267.84;2072703;28;20228;-65
2022/07/09 01:29:11;;;;;;;4.30;2.87;;;;;;;22.26;100.00;101267.09;2066957;28;20566;-64
2022/07/09 01:30:23;;;;;;;3.10;2.80;;;;;;;22.28;100.00;101270.19;2064452;28;20186;-65
2022/07/09 01:31:24;;;;;;;4.13;2.93;;;;;;;21.94;100.00;101214.63;2069266;28;20363;-65
2022/07/09 01:32:24;;;;;;;3.40;2.67;;;;;;;21.62;100.00;101179.88;2068293;28;20497;-65
2022/07/09 01:33:25;;;;;;;4.37;2.77;;;;;;;22.39;100.00;101273.13;2064318;28;20186;-65
2022/07/09 01:34:26;;;;;;;6.10;3.40;;;;;;;22.34;100.00;101277.44;2064401;28;20166;-65
2022/07/09 01:35:27;;;;;;;5.10;3.27;;;;;;;22.26;100.00;101269.91;2069884;28;20420;-65
2022/07/09 01:36:27;;;;;;;5.03;3.20;;;;;;;22.32;100.00;101277.16;2064254;28;20189;-66
2022/07/09 01:37:28;;;;;;;4.13;3.00;;;;;;;22.43;100.00;101290.63;2071590;28;20204;-65
2022/07/09 01:38:28;;;;;;;4.43;3.00;;;;;;;22.45;100.00;101297.34;2066088;28;20284;-64
2022/07/09 01:39:29;;;;;;;5.23;3.33;;;;;;;22.46;100.00;101289.66;2069385;28;20189;-65
2022/07/09 01:40:29;;;;;;;5.43;2.93;;;;;;;22.42;100.00;101289.84;2072318;28;20251;-64
2022/07/09 01:41:31;;;;;;;6.53;3.50;;;;;;;21.97;100.00;101216.47;2069469;28;20269;-65
2022/07/09 01:42:32;;;;;;;5.57;3.43;;;;;;;22.40;100.00;101294.44;2065763;28;20178;-65
2022/07/09 01:43:33;;;;;;;3.73;3.30;;;;;;;22.35;100.00;101310.06;2072311;28;20463;-65
2022/07/09 01:44:34;;;;;;;4.77;3.47;;;;;;;21.67;100.00;101182.00;2072688;28;20288;-64
2022/07/09 01:45:34;;;;;;;5.23;3.87;;;;;;;22.39;100.00;101292.88;2071889;28;20444;-65
2022/07/09 01:46:35;;;;;;;5.47;3.93;;;;;;;22.38;100.00;101289.31;2067002;28;20194;-65
2022/07/09 01:47:35;;;;;;;4.80;3.60;;;;;;;22.40;100.00;101294.44;2071589;28;20276;-65
2022/07/09 01:48:36;;;;;;;5.20;3.70;;;;;;;22.33;100.00;101292.06;2069480;28;20668;-65
2022/07/09 01:49:38;;;;;;;5.33;3.30;;;;;;;22.29;100.00;101285.84;2065839;28;20178;-66
2022/07/09 01:50:39;;;;;;;4.90;3.63;;;;;;;22.17;100.00;101284.19;2068247;28;20181;-65
2022/07/09 01:51:40;;;;;;;5.43;3.60;;;;;;;22.15;100.00;101278.28;2074210;28;20937;-65
2022/07/09 01:52:40;;;;;;;7.07;3.57;;;;;;;22.06;100.00;101281.25;2067507;28;20228;-65
2022/07/09 01:53:41;;;;;;;5.60;3.40;;;;;;;22.05;100.00;101285.34;2065689;28;20453;-65
2022/07/09 01:54:41;;;;;;;5.50;3.87;;;;;;;21.94;100.00;101277.50;2066238;28;20166;-65
2022/07/09 01:55:42;;;;;;;6.23;3.80;;;;;;;21.93;100.00;101287.25;2065213;28;20393;-65
2022/07/09 01:56:42;;;;;;;4.53;3.80;;;;;;;21.80;100.00;101269.88;2074177;28;20562;-65
2022/07/09 01:57:43;;;;;;;5.27;3.80;;;;;;;21.96;100.00;101286.25;2073866;28;20228;-65
2022/07/09 01:58:44;;;;;;;4.10;3.53;;;;;;;21.95;100.00;101287.50;2069690;28;20763;-65
2022/07/09 01:59:44;;;;;;;5.23;3.70;;;;;;;21.92;100.00;101293.38;2065585;28;20186;-65
2022/07/09 02:00:45;;;;;;;6.00;3.80;;;;;;;21.92;100.00;101285.69;2066926;28;20225;-65
2022/07/09 02:01:45;;;;;;;4.73;3.50;;;;;;;21.89;100.00;101285.88;2073156;28;20174;-65
2022/07/09 02:02:46;;;;;;;4.30;3.90;;;;;;;21.85;100.00;101288.94;2073701;28;20656;-65
2022/07/09 02:03:46;;;;;;;5.13;4.63;;;;;;;21.89;100.00;101291.53;2065897;28;20190;-65
2022/07/09 02:04:47;;;;;;;6.93;3.73;;;;;;;21.87;100.00;101292.06;2072790;28;20208;-65
2022/07/09 02:05:47;;;;;;;7.97;4.10;;;;;;;21.86;100.00;101290.47;2071971;28;20518;-65
2022/07/09 02:06:48;;;;;;;5.10;3.60;;;;;;;21.84;100.00;101293.03;2073340;28;20248;-65
2022/07/09 02:07:49;;;;;;;4.33;3.93;;;;;;;21.87;100.00;101294.09;2065496;28;20582;-65
2022/07/09 02:08:50;;;;;;;8.23;4.67;;;;;;;21.87;100.00;101308.97;2068045;28;20258;-66
2022/07/09 02:09:51;;;;;;;5.70;3.93;;;;;;;21.86;100.00;101298.94;2072512;28;20174;-65
2022/07/09 02:10:52;;;;;;;5.33;4.83;;;;;;;21.83;100.00;101304.78;2065475;28;20193;-66
2022/07/09 02:11:52;;;;;;;5.47;4.53;;;;;;;21.70;100.00;101298.75;2065918;28;20832;-66
2022/07/09 02:12:53;;;;;;;6.80;4.77;;;;;;;21.76;100.00;101316.50;2072654;28;20198;-64
2022/07/09 02:13:53;;;;;;;7.73;4.63;;;;;;;21.75;100.00;101312.91;2067451;28;20675;-65
2022/07/09 02:14:54;;;;;;;8.90;4.60;;;;;;;21.74;100.00;101316.25;2070910;28;20189;-65
2022/07/09 02:15:54;;;;;;;5.17;4.53;;;;;;;21.71;100.00;101331.31;2068815;28;20731;-65
2022/07/09 02:16:55;;;;;;;6.77;5.00;;;;;;;21.73;100.00;101326.75;2068462;28;20201;-65
2022/07/09 02:17:56;;;;;;;5.43;4.63;;;;;;;21.15;100.00;101241.53;2071948;28;20181;-66
2022/07/09 02:18:56;;;;;;;6.43;5.10;;;;;;;21.77;100.00;101326.53;2065648;28;20194;-65
2022/07/09 02:19:57;;;;;;;11.63;5.20;;;;;;;21.81;100.00;101332.75;2068288;28;20558;-65
2022/07/09 02:20:57;;;;;;;6.73;4.57;;;;;;;21.50;100.00;101282.53;2066180;28;20656;-65
2022/07/09 02:21:58;;;;;;;6.47;4.73;;;;;;;21.82;100.00;101329.44;2072029;28;20181;-64
2022/07/09 02:22:58;;;;;;;5.90;4.67;;;;;;;21.81;100.00;101330.69;2067417;28;20209;-65
2022/07/09 02:23:59;;;;;;;9.50;5.33;;;;;;;21.81;100.00;101341.97;2068916;28;20189;-65
2022/07/09 02:24:59;;;;;;;8.00;4.70;;;;;;;21.65;100.00;101321.97;2073109;28;20699;-65
2022/07/09 02:26:00;;;;;;;7.00;4.87;;;;;;;21.60;100.00;101328.31;2071777;28;20689;-65
2022/07/09 02:27:01;;;;;;;6.10;4.73;;;;;;;21.54;100.00;101342.31;2073739;28;20260;-66
2022/07/09 02:28:01;;;;;;;6.23;4.30;;;;;;;20.53;100.00;101212.88;2073856;28;20182;-65
2022/07/09 02:29:02;;;;;;;6.13;4.27;;;;;;;20.96;100.00;101290.94;2066105;28;20182;-66
2022/07/09 02:30:03;;;;;;;5.23;4.63;;;;;;;21.19;100.00;101349.22;2072270;28;20217;-65
2022/07/09 02:31:03;;;;;;;5.10;4.40;;;;;;;21.14;100.00;101342.22;2073457;28;20185;-65
2022/07/09 02:32:05;;;;;;;5.67;4.57;;;;;;;21.04;100.00;101354.84;2069836;28;20437;-65
2022/07/09 02:33:05;;;;;;;6.87;5.10;;;;;;;20.34;100.00;101260.16;2065073;28;20182;-65
2022/07/09 02:34:06;;;;;;;5.97;4.90;;;;;;;20.97;100.00;101366.53;2067940;28;20422;-65
2022/07/09 02:35:07;;;;;;;5.23;4.73;;;;;;;20.95;100.00;101369.06;2073350;28;20264;-65
2022/07/09 02:36:08;;;;;;;4.90;4.40;;;;;;;20.42;100.00;101311.97;2072545;28;20676;-65
2022/07/09 02:37:08;;;;;;;5.27;4.50;;;;;;;20.74;100.00;101381.47;2065637;28;20833;-65
2022/07/09 02:38:09;;;;;;;7.77;4.40;;;;;;;20.82;100.00;101398.75;2064813;28;20181;-65
2022/07/09 02:39:09;;;;;;;4.93;4.43;;;;;;;20.03;100.00;101284.31;2072733;28;20205;-65
2022/07/09 02:40:10;;;;;;;5.77;5.10;;;;;;;20.77;100.00;101411.47;2081045;28;20196;-65
2022/07/09 02:41:11;;;;;;;5.80;4.80;;;;;;;20.85;100.00;101440.81;2069761;28;20190;-64
2022/07/09 02:42:11;;;;;;;5.90;5.30;;;;;;;20.76;100.00;101426.81;2068021;28;20202;-65
2022/07/09 02:43:12;;;;;;;6.00;5.20;;;;;;;20.78;100.00;101421.47;2072957;28;20545;-64
2022/07/09 02:44:12;;;;;;;5.60;5.10;;;;;;;20.79;100.00;101428.69;2073334;28;20733;-65
2022/07/09 02:45:13;;;;;;;7.10;4.90;;;;;;;19.92;100.00;101281.28;2065751;28;20189;-65
2022/07/09 02:46:13;;;;;;;8.63;5.40;;;;;;;20.64;100.00;101393.28;2070936;28;20215;-65
2022/07/09 02:47:14;;;;;;;5.90;5.30;;;;;;;20.90;100.00;101416.84;2066795;28;20197;-65
2022/07/09 02:48:14;;;;;;;5.40;4.90;;;;;;;21.11;100.00;101426.97;2065587;28;20224;-64
2022/07/09 02:49:15;;;;;;;7.07;5.17;;;;;;;21.11;100.00;101433.41;2065400;28;20189;-66
2022/07/09 02:50:15;;;;;;;5.97;5.37;;;;;;;20.66;100.00;101383.09;2067930;28;20953;-65
2022/07/09 02:51:16;;;;;;;6.63;5.80;;;;;;;21.09;100.00;101421.81;2071984;28;20201;-65
2022/07/09 02:52:17;;;;;;;5.60;5.13;;;;;;;20.90;100.00;101392.28;2065494;28;20228;-65
2022/07/09 02:53:18;;;;;;;6.30;5.70;;;;;;;20.70;100.00;101374.44;2065030;28;20178;-65
2022/07/09 02:54:18;;;;;;;6.70;5.37;;;;;;;21.21;100.00;101434.06;2065538;28;20182;-65
2022/07/09 02:55:19;;;;;;;5.50;5.00;;;;;;;21.23;100.00;101437.19;2071559;28;20455;-65
2022/07/09 02:56:19;;;;;;;6.10;5.50;;;;;;;20.61;100.00;101329.47;2066985;28;20197;-65
2022/07/09 02:57:20;;;;;;;7.00;5.10;;;;;;;21.35;100.00;101431.22;2065381;28;20233;-65
2022/07/09 02:58:20;;;;;;;5.80;5.23;;;;;;;21.41;100.00;101426.47;2065516;28;20186;-65
2022/07/09 02:59:21;;;;;;;5.53;4.57;;;;;;;21.47;100.00;101430.16;2066990;28;20174;-65
2022/07/09 03:00:21;;;;;;;5.60;5.10;;;;;;;21.41;100.00;101420.06;2072683;28;20194;-66
2022/07/09 03:01:22;;;;;;;7.87;4.57;;;;;;;21.54;100.00;101434.63;2065555;28;20746;-65
2022/07/09 03:02:22;;;;;;;5.20;4.63;;;;;;;21.58;100.00;101429.56;2072744;28;20213;-65
2022/07/09 03:03:23;;;;;;;6.20;4.70;;;;;;;21.54;100.00;101423.34;2073282;28;20312;-65
2022/07/09 03:04:23;;;;;;;5.87;4.73;;;;;;;21.59;100.00;101431.88;2073569;28;20197;-65
2022/07/09 03:05:24;;;;;;;6.47;4.87;;;;;;;21.51;100.00;101413.84;2073035;28;20742;-65
2022/07/09 03:06:24;;;;;;;6.30;5.03;;;;;;;21.65;100.00;101432.00;2072766;28;20275;-65
2022/07/09 03:07:25;;;;;;;6.87;4.83;;;;;;;21.61;100.00;101434.22;2071533;28;20182;-65
2022/07/09 03:08:25;;;;;;;6.43;4.70;;;;;;;21.64;100.00;101430.44;2064908;28;20236;-66
2022/07/09 03:09:26;;;;;;;10.40;5.77;;;;;;;21.64;100.00;101431.19;2065513;28;20235;-66
2022/07/09 03:10:27;;;;;;;5.50;5.00;;;;;;;21.59;100.00;101423.44;2065177;28;20194;-65
2022/07/09 03:11:27;;;;;;;6.50;5.40;;;;;;;21.65;100.00;101432.00;2065240;28;20188;-65
2022/07/09 03:12:28;;;;;;;6.27;5.60;;;;;;;21.66;100.00;101434.34;2070275;28;20448;-65
2022/07/09 03:13:28;;;;;;;8.33;5.37;;;;;;;20.76;100.00;101282.38;2073333;28;20181;-66
2022/07/09 03:14:29;;;;;;;6.03;5.43;;;;;;;21.68;100.00;101431.00;2073354;28;20224;-65
2022/07/09 03:15:29;;;;;;;6.30;5.23;;;;;;;21.69;100.00;101427.72;2070980;28;20652;-65
2022/07/09 03:16:30;;;;;;;6.23;5.10;;;;;;;21.70;100.00;101426.44;2065430;28;20206;-65
2022/07/09 03:17:30;;;;;;;6.77;5.40;;;;;;;21.72;100.00;101437.25;2073482;28;20308;-65
2022/07/09 03:18:31;;;;;;;9.53;5.63;;;;;;;21.75;100.00;101430.63;2064885;28;20578;-65
2022/07/09 03:19:31;;;;;;;13.27;6.20;;;;;;;21.76;100.00;101429.38;2071136;28;20192;-65
2022/07/09 03:20:32;;;;;;;8.83;5.97;;;;;;;21.81;100.00;101434.31;2072446;28;20284;-65
2022/07/09 03:21:32;;;;;;;9.37;5.50;;;;;;;21.29;100.00;101354.25;2068912;28;20261;-66
2022/07/09 03:22:33;;;;;;;10.93;5.50;;;;;;;21.64;100.00;101402.25;2068014;28;20217;-65
2022/07/09 03:23:33;;;;;;;8.90;5.43;;;;;;;21.84;100.00;101436.13;2071044;28;20655;-65
2022/07/09 03:24:34;;;;;;;7.47;5.80;;;;;;;21.80;100.00;101433.53;2064360;28;20206;-65
2022/07/09 03:25:34;;;;;;;7.20;5.63;;;;;;;21.75;100.00;101425.75;2064085;28;20167;-65
2022/07/09 03:26:35;;;;;;;9.13;5.60;;;;;;;21.79;100.00;101439.66;2064121;28;20711;-65
2022/07/09 03:27:36;;;;;;;11.60;5.80;;;;;;;20.88;100.00;101293.34;2064509;28;20194;-65
2022/07/09 03:28:36;;;;;;;8.83;5.60;;;;;;;21.67;100.00;101426.63;2065279;28;20186;-66
2022/07/09 03:29:37;;;;;;;8.73;5.90;;;;;;;21.26;100.00;101362.91;2069644;28;20455;-66
2022/07/09 03:30:37;;;;;;;9.07;5.80;;;;;;;21.82;100.00;101430.22;2069676;28;20218;-65
2022/07/09 03:31:38;;;;;;;7.03;5.20;;;;;;;21.22;100.00;101340.56;2064897;28;20206;-65
2022/07/09 03:32:39;;;;;;;8.83;5.10;;;;;;;21.88;100.00;101439.53;2064526;28;20179;-65
2022/07/09 03:33:39;;;;;;;5.63;4.80;;;;;;;21.89;100.00;101435.44;2065110;28;20269;-65
2022/07/09 03:34:39;;;;;;;5.93;4.90;;;;;;;21.88;100.00;101443.16;2065537;28;20241;-65
2022/07/09 03:35:40;;;;;;;8.03;5.07;;;;;;;21.89;100.00;101441.88;2072322;28;20193;-66
2022/07/09 03:36:41;;;;;;;7.37;4.13;;;;;;;21.83;100.00;101437.41;2067366;28;20198;-65
2022/07/09 03:37:41;;;;;;;5.73;4.70;;;;;;;21.87;100.00;101454.91;2069558;28;20217;-65
2022/07/09 03:38:42;;;;;;;5.10;4.60;;;;;;;21.87;100.00;101452.09;2069437;28;20626;-65
2022/07/09 03:39:42;;;;;;;5.43;4.73;;;;;;;21.92;100.00;101452.19;2067386;28;20699;-66
2022/07/09 03:40:43;;;;;;;7.00;4.73;;;;;;;21.90;100.00;101456.78;2071631;28;20675;-65
2022/07/09 03:41:43;;;;;;;6.20;4.50;;;;;;;21.94;100.00;101465.78;2065053;28;20190;-65
2022/07/09 03:42:44;;;;;;;6.27;4.47;;;;;;;21.42;100.00;101384.94;2073093;28;20201;-65
2022/07/09 03:43:44;;;;;;;6.07;4.37;;;;;;;21.92;100.00;101457.06;2066716;28;20218;-65
2022/07/09 03:44:45;;;;;;;4.57;4.17;;;;;;;21.99;100.00;101463.06;2073075;28;20212;-65
2022/07/09 03:45:45;;;;;;;5.03;4.47;;;;;;;22.01;100.00;101471.03;2067146;28;20548;-65
2022/07/09 03:46:46;;;;;;;8.03;4.30;;;;;;;22.07;100.00;101469.09;2068871;28;20261;-65
2022/07/09 03:47:48;;;;;;;7.03;4.67;;;;;;;22.07;100.00;101466.25;2072832;28;20220;-65
2022/07/09 03:48:48;;;;;;;4.80;4.23;;;;;;;22.10;100.00;101470.94;2071433;28;20170;-65
2022/07/09 03:49:49;;;;;;;5.20;3.90;;;;;;;21.54;100.00;101381.81;2065438;28;20256;-65
2022/07/09 03:50:50;;;;;;;7.33;4.60;;;;;;;22.12;100.00;101471.22;2073234;28;20208;-65
2022/07/09 03:51:50;;;;;;;5.53;4.30;;;;;;;22.08;100.00;101464.97;2065427;28;20193;-65
2022/07/09 03:52:51;;;;;;;5.90;3.90;;;;;;;22.14;100.00;101468.66;2071065;28;20272;-65
2022/07/09 03:53:51;;;;;;;5.17;4.13;;;;;;;22.12;100.00;101460.69;2073005;28;20173;-66
2022/07/09 03:54:52;;;;;;;5.93;4.07;;;;;;;22.12;100.00;101462.72;2069009;28;20194;-65
2022/07/09 03:55:52;;;;;;;5.47;4.60;;;;;;;22.12;100.00;101457.09;2063730;28;20286;-65
2022/07/09 03:56:53;;;;;;;5.63;4.60;;;;;;;22.13;100.00;101458.63;2065090;28;20178;-65
2022/07/09 03:57:53;;;;;;;5.57;4.27;;;;;;;22.10;100.00;101465.28;2064582;28;20491;-65
2022/07/09 03:58:53;;;;;;;6.27;4.40;;;;;;;22.06;100.00;101462.66;2065249;28;20210;-66
2022/07/09 03:59:54;;;;;;;5.43;4.30;;;;;;;22.07;100.00;101475.50;2064699;28;20220;-65
2022/07/09 04:00:54;;;;;;;5.93;4.40;;;;;;;22.07;100.00;101466.25;2064788;28;20186;-65
2022/07/09 04:01:55;;;;;;;5.90;5.00;;;;;;;22.02;100.00;101469.78;2064802;28;20700;-66
2022/07/09 04:02:55;;;;;;;5.10;4.70;;;;;;;21.95;100.00;101473.00;2068797;28;20198;-65
2022/07/09 04:03:56;;;;;;;5.60;4.67;;;;;;;21.54;100.00;101403.63;2072882;28;20332;-66
2022/07/09 04:04:56;;;;;;;5.40;4.40;;;;;;;21.99;100.00;101473.56;2072286;28;20209;-66
2022/07/09 04:05:57;;;;;;;4.60;4.10;;;;;;;21.97;100.00;101471.25;2071297;28;20633;-65
2022/07/09 04:06:57;;;;;;;4.97;4.43;;;;;;;21.99;100.00;101465.88;2072700;28;20185;-66
2022/07/09 04:07:58;;;;;;;5.43;4.43;;;;;;;21.99;100.00;101471.53;2066625;28;20240;-66
2022/07/09 04:09:03;;;;;;;6.30;4.50;;;;;;;21.99;100.00;101471.53;2072529;28;20189;-66
2022/07/09 04:10:04;;;;;;;5.83;4.07;;;;;;;21.95;100.00;101465.31;2073063;28;20197;-65
2022/07/09 04:11:05;;;;;;;6.23;4.50;;;;;;;21.92;100.00;101468.34;2072628;28;20482;-65
2022/07/09 04:12:06;;;;;;;6.27;4.10;;;;;;;21.94;100.00;101468.63;2072974;28;20435;-65
2022/07/09 04:13:07;;;;;;;5.80;4.40;;;;;;;21.52;100.00;101408.94;2069214;28;20640;-65
2022/07/09 04:14:08;;;;;;;7.03;4.50;;;;;;;21.89;100.00;101472.91;2066768;28;20886;-65
2022/07/09 04:15:08;;;;;;;5.37;4.30;;;;;;;21.88;100.00;101467.75;2072639;28;20235;-65
2022/07/09 04:16:09;;;;;;;4.73;3.83;;;;;;;21.79;100.00;101470.69;2072350;28;20571;-65
2022/07/09 04:17:09;;;;;;;5.13;4.10;;;;;;;21.87;100.00;101467.00;2072756;28;20182;-65
2022/07/09 04:18:10;;;;;;;4.30;3.90;;;;;;;21.85;100.00;101477.97;2072849;28;20259;-66
2022/07/09 04:19:10;;;;;;;7.50;4.73;;;;;;;21.86;100.00;101478.78;2067154;28;20565;-65
2022/07/09 04:20:11;;;;;;;4.80;4.27;;;;;;;21.83;100.00;101476.91;2068834;28;20193;-65
2022/07/09 04:21:11;;;;;;;5.53;4.33;;;;;;;21.80;100.00;101484.31;2069405;28;20244;-65
2022/07/09 04:22:12;;;;;;;4.70;4.20;;;;;;;21.78;100.00;101469.94;2067085;28;20182;-66
2022/07/09 04:23:12;;;;;;;5.90;4.40;;;;;;;21.65;100.00;101458.13;2072110;28;20264;-66
2022/07/09 04:24:15;;;;;;;4.40;4.00;;;;;;;21.80;100.00;101477.91;2073132;28;20292;-66
2022/07/09 04:25:16;;;;;;;6.47;4.53;;;;;;;21.80;100.00;101475.09;2064807;28;20185;-65
2022/07/09 04:26:18;;;;;;;6.07;4.20;;;;;;;21.78;100.00;101483.25;2071131;28;20485;-65
2022/07/09 04:27:19;;;;;;;4.50;4.10;;;;;;;21.77;100.00;101479.66;2066418;28;20183;-65
2022/07/09 04:28:20;;;;;;;5.33;4.20;;;;;;;21.78;100.00;101481.22;2064625;28;20461;-65
2022/07/09 04:29:20;;;;;;;6.00;4.03;;;;;;;21.81;100.00;101482.28;2064656;28;20194;-65
2022/07/09 04:30:21;;;;;;;5.10;3.97;;;;;;;21.79;100.00;101484.81;2064457;28;20442;-66
2022/07/09 04:31:21;;;;;;;5.20;4.30;;;;;;;21.08;100.00;101374.41;2072041;28;20178;-66
2022/07/09 04:32:22;;;;;;;6.43;4.23;;;;;;;21.80;100.00;101492.03;2072467;28;20216;-65
2022/07/09 04:33:22;;;;;;;5.57;4.47;;;;;;;21.76;100.00;101486.59;2064827;28;20646;-65
2022/07/09 04:34:23;;;;;;;6.30;4.37;;;;;;;21.76;100.00;101485.78;2064862;28;20249;-65
2022/07/09 04:35:23;;;;;;;4.80;4.00;;;;;;;21.76;100.00;101483.75;2070112;28;20603;-65
2022/07/09 04:36:23;;;;;;;7.40;4.50;;;;;;;21.77;100.00;101493.78;2072400;28;20608;-65
2022/07/09 04:37:24;;;;;;;5.17;4.20;;;;;;;21.77;100.00;101488.13;2068316;28;20664;-65
2022/07/09 04:38:24;;;;;;;4.67;4.10;;;;;;;21.74;100.00;101489.09;2067701;28;20208;-65
2022/07/09 04:39:25;;;;;;;4.60;4.20;;;;;;;21.73;100.00;101489.59;2070418;28;20764;-65